Time,TemperatureF,DewpointF,PressureIn,WindDirection,WindDirectionDegrees,WindSpeedMPH,WindSpeedGustMPH,Humidity,HourlyPrecipIn,Conditions,Clouds,dailyrainin,SoftwareType,DateUTC
2013-02-03 00:00:00,37.2,30.0,30.11,SSE,163,0.0,22.0,75,0.00,,,0.00,Wunderground v.1.15,2013-02-03 06:00:00,
2013-02-03 00:05:00,37.1,29.9,30.11,SSE,163,0.0,22.0,75,0.00,,,0.00,Wunderground v.1.15,2013-02-03 06:05:00,
2013-02-03 00:10:00,37.1,30.2,30.10,SSE,163,1.0,22.0,76,0.00,,,0.00,Wunderground v.1.15,2013-02-03 06:10:00,
2013-02-03 00:15:00,37.3,30.4,30.10,SE,146,2.0,22.0,76,0.00,,,0.00,Wunderground v.1.15,2013-02-03 06:15:00,
2013-02-03 00:20:00,37.3,30.1,30.10,SE,140,3.0,22.0,75,0.00,,,0.00,Wunderground v.1.15,2013-02-03 06:20:00,
2013-02-03 00:25:00,37.2,30.0,30.10,SSE,153,4.0,22.0,75,0.00,,,0.00,Wunderground v.1.15,2013-02-03 06:25:00,
2013-02-03 00:35:00,37.3,30.4,30.10,South,176,4.0,22.0,76,0.00,,,0.00,Wunderground v.1.15,2013-02-03 06:35:00,
2013-02-03 00:40:00,37.3,30.4,30.10,SSE,150,4.0,22.0,76,0.00,,,0.00,Wunderground v.1.15,2013-02-03 06:40:00,
2013-02-03 00:45:00,37.4,30.8,30.09,SSE,165,5.0,22.0,77,0.00,,,0.00,Wunderground v.1.15,2013-02-03 06:45:00,
2013-02-03 00:50:00,37.5,30.9,30.09,SSE,165,5.0,5.0,77,0.00,,,0.00,Wunderground v.1.15,2013-02-03 06:50:00,
2013-02-03 00:55:00,37.5,30.9,30.09,South,170,6.0,6.0,77,0.00,,,0.00,Wunderground v.1.15,2013-02-03 06:55:00,
2013-02-03 01:00:00,37.4,30.8,30.09,SE,139,6.0,22.0,77,0.00,,,0.00,Wunderground v.1.15,2013-02-03 07:00:00,
2013-02-03 01:05:00,37.2,31.0,30.09,SE,134,6.0,22.0,78,0.00,,,0.00,Wunderground v.1.15,2013-02-03 07:05:00,
2013-02-03 01:10:00,36.9,30.7,30.09,SSE,159,5.0,22.0,78,0.00,,,0.00,Wunderground v.1.15,2013-02-03 07:10:00,
2013-02-03 01:15:00,36.7,30.8,30.09,South,170,4.0,22.0,79,0.00,,,0.00,Wunderground v.1.15,2013-02-03 07:15:00,
2013-02-03 01:20:00,36.6,31.0,30.09,SSE,149,4.0,4.0,80,0.00,,,0.00,Wunderground v.1.15,2013-02-03 07:20:00,
2013-02-03 01:25:00,36.6,31.0,30.08,SSE,156,4.0,22.0,80,0.00,,,0.00,Wunderground v.1.15,2013-02-03 07:25:00,
2013-02-03 01:30:00,36.7,31.1,30.08,SSE,152,4.0,22.0,80,0.00,,,0.00,Wunderground v.1.15,2013-02-03 07:30:00,
2013-02-03 01:35:00,36.8,31.2,30.07,SSE,148,4.0,22.0,80,0.00,,,0.00,Wunderground v.1.15,2013-02-03 07:35:00,
2013-02-03 01:40:00,36.9,31.3,30.07,SSE,156,3.0,3.0,80,0.00,,,0.00,Wunderground v.1.15,2013-02-03 07:40:00,
2013-02-03 01:45:00,36.9,31.3,30.07,SSE,154,2.0,22.0,80,0.00,,,0.00,Wunderground v.1.15,2013-02-03 07:45:00,
2013-02-03 01:50:00,36.8,31.2,30.07,SSE,152,2.0,2.0,80,0.00,,,0.00,Wunderground v.1.15,2013-02-03 07:50:00,
2013-02-03 01:55:00,36.6,31.3,30.07,SSE,160,2.0,22.0,81,0.00,,,0.00,Wunderground v.1.15,2013-02-03 07:55:00,
2013-02-03 02:00:00,36.3,31.0,30.06,SSE,152,3.0,3.0,81,0.00,,,0.00,Wunderground v.1.15,2013-02-03 08:00:00,
2013-02-03 02:05:00,36.1,31.1,30.06,SSE,160,3.0,5.0,82,0.00,,,0.00,Wunderground v.1.15,2013-02-03 08:05:00,
2013-02-03 02:10:00,36.1,31.1,30.05,SE,146,4.0,22.0,82,0.00,,,0.00,Wunderground v.1.15,2013-02-03 08:10:00,
2013-02-03 02:15:00,36.0,31.0,30.06,SSE,168,4.0,22.0,82,0.00,,,0.00,Wunderground v.1.15,2013-02-03 08:15:00,
2013-02-03 02:25:00,35.9,31.2,30.06,SSW,204,5.0,22.0,83,0.00,,,0.00,Wunderground v.1.15,2013-02-03 08:25:00,
2013-02-03 02:30:00,35.8,31.1,30.06,SSW,212,6.0,22.0,83,0.00,,,0.00,Wunderground v.1.15,2013-02-03 08:30:00,
2013-02-03 02:35:00,35.9,31.2,30.06,SW,216,6.0,22.0,83,0.00,,,0.00,Wunderground v.1.15,2013-02-03 08:35:00,
2013-02-03 02:40:00,35.9,31.2,30.06,SSW,210,6.0,6.0,83,0.00,,,0.00,Wunderground v.1.15,2013-02-03 08:40:00,
2013-02-03 02:45:00,35.9,30.9,30.06,SW,218,7.0,7.0,82,0.00,,,0.00,Wunderground v.1.15,2013-02-03 08:45:00,
2013-02-03 02:50:00,35.8,30.8,30.06,SW,220,6.0,6.0,82,0.00,,,0.00,Wunderground v.1.15,2013-02-03 08:50:00,
2013-02-03 02:55:00,35.5,30.8,30.06,SW,223,4.0,22.0,83,0.00,,,0.00,Wunderground v.1.15,2013-02-03 08:55:00,
2013-02-03 03:00:00,35.3,30.9,30.06,SW,216,3.0,3.0,84,0.00,,,0.00,Wunderground v.1.15,2013-02-03 09:00:00,
2013-02-03 03:05:00,35.1,30.8,30.06,SW,223,3.0,22.0,84,0.00,,,0.00,Wunderground v.1.15,2013-02-03 09:05:00,
2013-02-03 03:10:00,34.9,30.6,30.07,SW,227,2.0,2.0,84,0.00,,,0.00,Wunderground v.1.15,2013-02-03 09:10:00,
2013-02-03 03:15:00,34.6,30.3,30.07,SW,226,1.0,22.0,84,0.00,,,0.00,Wunderground v.1.15,2013-02-03 09:15:00,
2013-02-03 03:20:00,34.4,30.4,30.07,SW,226,1.0,1.0,85,0.00,,,0.00,Wunderground v.1.15,2013-02-03 09:20:00,
2013-02-03 03:25:00,34.0,30.0,30.07,SW,222,1.0,22.0,85,0.00,,,0.00,Wunderground v.1.15,2013-02-03 09:25:00,
2013-02-03 03:30:00,33.7,29.7,30.07,SW,227,1.0,1.0,85,0.00,,,0.00,Wunderground v.1.15,2013-02-03 09:30:00,
2013-02-03 03:35:00,33.5,29.8,30.07,SW,227,0.0,22.0,86,0.00,,,0.00,Wunderground v.1.15,2013-02-03 09:35:00,
2013-02-03 03:40:00,33.2,29.5,30.07,SW,227,0.0,22.0,86,0.00,,,0.00,Wunderground v.1.15,2013-02-03 09:40:00,
2013-02-03 03:45:00,32.9,29.5,30.07,SW,227,0.0,22.0,87,0.00,,,0.00,Wunderground v.1.15,2013-02-03 09:45:00,
2013-02-03 03:50:00,32.7,29.3,30.07,SW,227,0.0,22.0,87,0.00,,,0.00,Wunderground v.1.15,2013-02-03 09:50:00,
2013-02-03 03:55:00,32.5,29.3,30.06,SW,227,0.0,22.0,88,0.00,,,0.00,Wunderground v.1.15,2013-02-03 09:55:00,
2013-02-03 04:00:00,32.3,29.1,30.06,SW,227,0.0,22.0,88,0.00,,,0.00,Wunderground v.1.15,2013-02-03 10:00:00,
2013-02-03 04:05:00,32.2,29.0,30.07,SW,227,0.0,22.0,88,0.00,,,0.00,Wunderground v.1.15,2013-02-03 10:05:00,
2013-02-03 04:10:00,32.0,28.8,30.06,SW,227,0.0,22.0,88,0.00,,,0.00,Wunderground v.1.15,2013-02-03 10:10:00,
2013-02-03 04:15:00,31.9,28.8,30.07,SW,234,0.0,22.0,88,0.00,,,0.00,Wunderground v.1.15,2013-02-03 10:15:00,
2013-02-03 04:25:00,31.6,28.7,30.07,SW,233,0.0,22.0,89,0.00,,,0.00,Wunderground v.1.15,2013-02-03 10:25:00,
2013-02-03 04:30:00,31.5,28.6,30.07,SW,234,0.0,22.0,89,0.00,,,0.00,Wunderground v.1.15,2013-02-03 10:30:00,
2013-02-03 04:40:00,31.3,28.4,30.07,SW,234,0.0,22.0,89,0.00,,,0.00,Wunderground v.1.15,2013-02-03 10:40:00,
2013-02-03 04:45:00,31.2,28.3,30.07,SW,233,0.0,22.0,89,0.00,,,0.00,Wunderground v.1.15,2013-02-03 10:45:00,
2013-02-03 04:50:00,31.1,28.2,30.07,SW,233,0.0,22.0,89,0.00,,,0.00,Wunderground v.1.15,2013-02-03 10:50:00,
2013-02-03 04:55:00,31.1,28.2,30.07,SW,233,0.0,22.0,89,0.00,,,0.00,Wunderground v.1.15,2013-02-03 10:55:00,
2013-02-03 05:00:00,31.0,28.4,30.08,SW,233,0.0,22.0,90,0.00,,,0.00,Wunderground v.1.15,2013-02-03 11:00:00,
2013-02-03 05:05:00,31.0,28.4,30.08,SW,234,0.0,22.0,90,0.00,,,0.00,Wunderground v.1.15,2013-02-03 11:05:00,
2013-02-03 05:10:00,31.0,28.4,30.08,SW,233,0.0,22.0,90,0.00,,,0.00,Wunderground v.1.15,2013-02-03 11:10:00,
2013-02-03 05:15:00,31.1,28.5,30.08,SW,233,0.0,22.0,90,0.00,,,0.00,Wunderground v.1.15,2013-02-03 11:15:00,
2013-02-03 05:20:00,31.2,28.6,30.08,WSW,242,0.0,22.0,90,0.00,,,0.00,Wunderground v.1.15,2013-02-03 11:20:00,
2013-02-03 05:25:00,31.2,28.3,30.08,WSW,241,0.0,22.0,89,0.00,,,0.00,Wunderground v.1.15,2013-02-03 11:25:00,
2013-02-03 05:30:00,31.2,28.3,30.09,WSW,242,1.0,1.0,89,0.00,,,0.00,Wunderground v.1.15,2013-02-03 11:30:00,
2013-02-03 05:35:00,31.2,28.3,30.09,WSW,244,1.0,2.0,89,0.00,,,0.00,Wunderground v.1.15,2013-02-03 11:35:00,
2013-02-03 05:40:00,31.1,28.2,30.09,WSW,243,1.0,1.0,89,0.00,,,0.00,Wunderground v.1.15,2013-02-03 11:40:00,
2013-02-03 05:45:00,31.0,28.1,30.09,WSW,243,0.0,22.0,89,0.00,,,0.00,Wunderground v.1.15,2013-02-03 11:45:00,
2013-02-03 05:50:00,30.9,28.0,30.09,WSW,243,0.0,22.0,89,0.00,,,0.00,Wunderground v.1.15,2013-02-03 11:50:00,
2013-02-03 05:55:00,30.9,28.3,30.09,WSW,243,0.0,22.0,90,0.00,,,0.00,Wunderground v.1.15,2013-02-03 11:55:00,
2013-02-03 06:00:00,30.9,28.3,30.10,WSW,243,0.0,22.0,90,0.00,,,0.00,Wunderground v.1.15,2013-02-03 12:00:00,
2013-02-03 06:05:00,30.8,28.2,30.09,WSW,243,0.0,22.0,90,0.00,,,0.00,Wunderground v.1.15,2013-02-03 12:05:00,
2013-02-03 06:10:00,30.7,28.1,30.10,WSW,243,0.0,22.0,90,0.00,,,0.00,Wunderground v.1.15,2013-02-03 12:10:00,
2013-02-03 06:15:00,30.5,27.9,30.10,WSW,243,0.0,22.0,90,0.00,,,0.00,Wunderground v.1.15,2013-02-03 12:15:00,
2013-02-03 06:25:00,30.3,27.7,30.10,WSW,243,0.0,22.0,90,0.00,,,0.00,Wunderground v.1.15,2013-02-03 12:25:00,
2013-02-03 06:30:00,30.4,27.8,30.10,WSW,243,0.0,22.0,90,0.00,,,0.00,Wunderground v.1.15,2013-02-03 12:30:00,
2013-02-03 06:35:00,30.4,28.1,30.10,WSW,245,0.0,22.0,91,0.00,,,0.00,Wunderground v.1.15,2013-02-03 12:35:00,
2013-02-03 06:40:00,30.3,27.7,30.11,WSW,249,1.0,22.0,90,0.00,,,0.00,Wunderground v.1.15,2013-02-03 12:40:00,
2013-02-03 06:45:00,30.5,28.2,30.11,WSW,242,1.0,22.0,91,0.00,,,0.00,Wunderground v.1.15,2013-02-03 12:45:00,
2013-02-03 06:55:00,30.7,28.4,30.11,WSW,245,1.0,22.0,91,0.00,,,0.00,Wunderground v.1.15,2013-02-03 12:55:00,
2013-02-03 07:00:00,30.7,28.1,30.11,WSW,245,1.0,22.0,90,0.00,,,0.00,Wunderground v.1.15,2013-02-03 13:00:00,
2013-02-03 07:10:00,30.8,28.2,30.11,WSW,256,1.0,1.0,90,0.00,,,0.00,Wunderground v.1.15,2013-02-03 13:10:00,
2013-02-03 07:15:00,30.7,28.1,30.11,West,259,1.0,22.0,90,0.00,,,0.00,Wunderground v.1.15,2013-02-03 13:15:00,
2013-02-03 07:20:00,30.8,28.2,30.11,WSW,251,2.0,22.0,90,0.00,,,0.00,Wunderground v.1.15,2013-02-03 13:20:00,
2013-02-03 07:25:00,31.0,28.4,30.11,West,263,2.0,22.0,90,0.00,,,0.00,Wunderground v.1.15,2013-02-03 13:25:00,
2013-02-03 07:30:00,31.1,28.5,30.12,West,260,2.0,2.0,90,0.00,,,0.00,Wunderground v.1.15,2013-02-03 13:30:00,
2013-02-03 07:35:00,31.4,28.8,30.13,West,259,1.0,22.0,90,0.00,,,0.00,Wunderground v.1.15,2013-02-03 13:35:00,
2013-02-03 07:40:00,31.8,29.2,30.13,West,260,1.0,1.0,90,0.00,,,0.00,Wunderground v.1.15,2013-02-03 13:40:00,
2013-02-03 07:45:00,32.1,29.2,30.13,West,260,1.0,22.0,89,0.00,,,0.00,Wunderground v.1.15,2013-02-03 13:45:00,
2013-02-03 07:50:00,32.4,29.5,30.13,West,260,0.0,22.0,89,0.00,,,0.00,Wunderground v.1.15,2013-02-03 13:50:00,
2013-02-03 07:55:00,32.6,29.7,30.13,West,260,0.0,22.0,89,0.00,,,0.00,Wunderground v.1.15,2013-02-03 13:55:00,
2013-02-03 08:00:00,32.7,29.8,30.12,West,260,0.0,22.0,89,0.00,,,0.00,Wunderground v.1.15,2013-02-03 14:00:00,
2013-02-03 08:05:00,32.9,30.0,30.12,West,260,0.0,22.0,89,0.00,,,0.00,Wunderground v.1.15,2013-02-03 14:05:00,
2013-02-03 08:10:00,33.2,30.3,30.13,West,260,0.0,22.0,89,0.00,,,0.00,Wunderground v.1.15,2013-02-03 14:10:00,
2013-02-03 08:15:00,33.6,30.4,30.12,West,259,0.0,22.0,88,0.00,,,0.00,Wunderground v.1.15,2013-02-03 14:15:00,
2013-02-03 08:20:00,34.1,30.9,30.12,West,259,0.0,22.0,88,0.00,,,0.00,Wunderground v.1.15,2013-02-03 14:20:00,
2013-02-03 08:30:00,35.1,31.6,30.13,West,259,0.0,22.0,87,0.00,,,0.00,Wunderground v.1.15,2013-02-03 14:30:00,
2013-02-03 08:35:00,35.6,32.1,30.13,West,259,0.0,22.0,87,0.00,,,0.00,Wunderground v.1.15,2013-02-03 14:35:00,
2013-02-03 08:40:00,36.2,32.4,30.13,West,259,0.0,22.0,86,0.00,,,0.00,Wunderground v.1.15,2013-02-03 14:40:00,
2013-02-03 08:45:00,36.9,32.5,30.13,West,259,0.0,22.0,84,0.00,,,0.00,Wunderground v.1.15,2013-02-03 14:45:00,
2013-02-03 08:50:00,37.7,33.0,30.13,West,259,0.0,22.0,83,0.00,,,0.00,Wunderground v.1.15,2013-02-03 14:50:00,
2013-02-03 08:55:00,38.6,32.6,30.13,WSW,257,0.0,22.0,79,0.00,,,0.00,Wunderground v.1.15,2013-02-03 14:55:00,
2013-02-03 09:00:00,39.4,32.8,30.13,WSW,239,1.0,1.0,77,0.00,,,0.00,Wunderground v.1.15,2013-02-03 15:00:00,
2013-02-03 09:10:00,40.4,33.8,30.13,WSW,241,1.0,22.0,77,0.00,,,0.00,Wunderground v.1.15,2013-02-03 15:10:00,
2013-02-03 09:15:00,40.8,33.2,30.13,WSW,243,1.0,22.0,74,0.00,,,0.00,Wunderground v.1.15,2013-02-03 15:15:00,
2013-02-03 09:20:00,41.0,32.3,30.13,West,262,3.0,22.0,71,0.00,,,0.00,Wunderground v.1.15,2013-02-03 15:20:00,
2013-02-03 09:25:00,41.2,32.9,30.13,WSW,249,3.0,22.0,72,0.00,,,0.00,Wunderground v.1.15,2013-02-03 15:25:00,
2013-02-03 09:30:00,41.5,33.1,30.13,WSW,254,3.0,22.0,72,0.00,,,0.00,Wunderground v.1.15,2013-02-03 15:30:00,
2013-02-03 09:35:00,41.9,32.8,30.14,SW,219,3.0,22.0,70,0.00,,,0.00,Wunderground v.1.15,2013-02-03 15:35:00,
2013-02-03 09:40:00,42.3,32.8,30.14,West,262,4.0,4.0,69,0.00,,,0.00,Wunderground v.1.15,2013-02-03 15:40:00,
2013-02-03 09:45:00,42.6,33.1,30.14,WNW,282,4.0,22.0,69,0.00,,,0.00,Wunderground v.1.15,2013-02-03 15:45:00,
2013-02-03 09:50:00,42.9,31.9,30.14,WNW,289,5.0,22.0,65,0.00,,,0.00,Wunderground v.1.15,2013-02-03 15:50:00,
2013-02-03 09:55:00,43.4,32.4,30.14,NW,305,5.0,22.0,65,0.00,,,0.00,Wunderground v.1.15,2013-02-03 15:55:00,
2013-02-03 10:00:00,44.1,32.7,30.14,WNW,289,4.0,22.0,64,0.00,,,0.00,Wunderground v.1.15,2013-02-03 16:00:00,
2013-02-03 10:05:00,44.5,32.7,30.15,WNW,298,4.0,22.0,63,0.00,,,0.00,Wunderground v.1.15,2013-02-03 16:05:00,
2013-02-03 10:10:00,45.0,32.3,30.15,WNW,287,5.0,22.0,61,0.00,,,0.00,Wunderground v.1.15,2013-02-03 16:10:00,
2013-02-03 10:15:00,45.2,31.7,30.15,West,263,6.0,22.0,59,0.00,,,0.00,Wunderground v.1.15,2013-02-03 16:15:00,
2013-02-03 10:20:00,45.2,30.9,30.15,West,278,7.0,7.0,57,0.00,,,0.00,Wunderground v.1.15,2013-02-03 16:20:00,
2013-02-03 10:25:00,45.5,30.7,30.16,WSW,250,6.0,22.0,56,0.00,,,0.00,Wunderground v.1.15,2013-02-03 16:25:00,
2013-02-03 10:30:00,45.6,31.7,30.16,West,275,7.0,22.0,58,0.00,,,0.00,Wunderground v.1.15,2013-02-03 16:30:00,
2013-02-03 10:35:00,45.9,31.5,30.16,WNW,295,7.0,22.0,57,0.00,,,0.00,Wunderground v.1.15,2013-02-03 16:35:00,
2013-02-03 10:40:00,46.0,29.8,30.17,West,264,8.0,22.0,53,0.00,,,0.00,Wunderground v.1.15,2013-02-03 16:40:00,
2013-02-03 10:45:00,46.2,30.0,30.17,West,266,8.0,22.0,53,0.00,,,0.00,Wunderground v.1.15,2013-02-03 16:45:00,
2013-02-03 10:50:00,46.3,31.0,30.17,West,267,8.0,8.0,55,0.00,,,0.00,Wunderground v.1.15,2013-02-03 16:50:00,
2013-02-03 10:55:00,47.1,30.8,30.17,WSW,242,7.0,10.0,53,0.00,,,0.00,Wunderground v.1.15,2013-02-03 16:55:00,
2013-02-03 11:00:00,47.7,31.9,30.17,West,278,6.0,22.0,54,0.00,,,0.00,Wunderground v.1.15,2013-02-03 17:00:00,
2013-02-03 11:05:00,48.0,31.2,30.18,WNW,285,6.0,22.0,52,0.00,,,0.00,Wunderground v.1.15,2013-02-03 17:05:00,
2013-02-03 11:10:00,48.2,30.9,30.18,West,279,7.0,22.0,51,0.00,,,0.00,Wunderground v.1.15,2013-02-03 17:10:00,
2013-02-03 11:20:00,48.3,29.0,30.18,WNW,289,8.0,22.0,47,0.00,,,0.00,Wunderground v.1.15,2013-02-03 17:20:00,
2013-02-03 11:25:00,48.5,29.7,30.18,West,276,7.0,22.0,48,0.00,,,0.00,Wunderground v.1.15,2013-02-03 17:25:00,